sensor_id;sensor_type;location;lat;lon;timestamp;pressure;altitude;pressure_sealevel;temperature;humidity
44140;BME280;29803;51.048;4.686;2022-11-15T00:01:01;100793.88;;;9.22;100.00
44140;BME280;29803;51.048;4.686;2022-11-15T00:03:32;100793.25;;;9.28;100.00
44140;BME280;29803;51.048;4.686;2022-11-15T00:06:05;100792.47;;;9.36;100.00
44140;BME280;29803;51.048;4.686;2022-11-15T00:08:35;100789.31;;;9.41;100.00
44140;BME280;29803;51.048;4.686;2022-11-15T00:11:06;100796.03;;;9.45;100.00
44140;BME280;29803;51.048;4.686;2022-11-15T00:13:36;100796.38;;;9.50;100.00
44140;BME280;29803;51.048;4.686;2022-11-15T00:16:08;100791.53;;;9.53;100.00
44140;BME280;29803;51.048;4.686;2022-11-15T00:18:39;100792.06;;;9.57;100.00
44140;BME280;29803;51.048;4.686;2022-11-15T00:21:11;100791.88;;;9.58;100.00
44140;BME280;29803;51.048;4.686;2022-11-15T00:23:42;100784.19;;;9.64;100.00
44140;BME280;29803;51.048;4.686;2022-11-15T00:26:13;100787.41;;;9.67;100.00
44140;BME280;29803;51.048;4.686;2022-11-15T00:28:44;100782.75;;;9.69;100.00
44140;BME280;29803;51.048;4.686;2022-11-15T00:31:15;100792.09;;;9.73;100.00
44140;BME280;29803;51.048;4.686;2022-11-15T00:33:45;100789.28;;;9.75;100.00
44140;BME280;29803;51.048;4.686;2022-11-15T00:36:16;100784.09;;;9.81;100.00
44140;BME280;29803;51.048;4.686;2022-11-15T00:38:46;100792.31;;;9.88;100.00
44140;BME280;29803;51.048;4.686;2022-11-15T00:41:16;100791.34;;;9.89;100.00
44140;BME280;29803;51.048;4.686;2022-11-15T00:43:47;100790.16;;;9.92;100.00
44140;BME280;29803;51.048;4.686;2022-11-15T00:46:17;100795.53;;;9.92;100.00
44140;BME280;29803;51.048;4.686;2022-11-15T00:48:48;100797.19;;;9.93;100.00
44140;BME280;29803;51.048;4.686;2022-11-15T00:51:18;100796.88;;;9.96;100.00
44140;BME280;29803;51.048;4.686;2022-11-15T00:53:49;100797.41;;;9.99;100.00
44140;BME280;29803;51.048;4.686;2022-11-15T00:56:19;100798.41;;;10.06;100.00
44140;BME280;29803;51.048;4.686;2022-11-15T00:58:50;100795.25;;;10.11;100.00
44140;BME280;29803;51.048;4.686;2022-11-15T01:01:20;100799.41;;;10.13;100.00
44140;BME280;29803;51.048;4.686;2022-11-15T01:03:51;100799.94;;;10.17;100.00
44140;BME280;29803;51.048;4.686;2022-11-15T01:06:21;100805.13;;;10.19;100.00
44140;BME280;29803;51.048;4.686;2022-11-15T01:08:52;100803.13;;;10.21;100.00
44140;BME280;29803;51.048;4.686;2022-11-15T01:11:22;100801.13;;;10.23;100.00
44140;BME280;29803;51.048;4.686;2022-11-15T01:13:52;100797.31;;;10.25;100.00
44140;BME280;29803;51.048;4.686;2022-11-15T01:16:24;100794.47;;;10.27;100.00
44140;BME280;29803;51.048;4.686;2022-11-15T01:18:55;100792.44;;;10.29;100.00
44140;BME280;29803;51.048;4.686;2022-11-15T01:21:25;100787.78;;;10.31;100.00
44140;BME280;29803;51.048;4.686;2022-11-15T01:23:56;100793.66;;;10.34;100.00
44140;BME280;29803;51.048;4.686;2022-11-15T01:26:27;100790.78;;;10.36;100.00
44140;BME280;29803;51.048;4.686;2022-11-15T01:28:58;100790.63;;;10.37;100.00
44140;BME280;29803;51.048;4.686;2022-11-15T01:31:28;100782.41;;;10.39;100.00
44140;BME280;29803;51.048;4.686;2022-11-15T01:33:58;100783.91;;;10.42;100.00
44140;BME280;29803;51.048;4.686;2022-11-15T01:36:29;100782.75;;;10.44;100.00
44140;BME280;29803;51.048;4.686;2022-11-15T01:38:59;100772.69;;;10.46;100.00
44140;BME280;29803;51.048;4.686;2022-11-15T01:41:32;100776.03;;;10.48;100.00
44140;BME280;29803;51.048;4.686;2022-11-15T01:47:04;100765.31;;;10.48;100.00
44140;BME280;29803;51.048;4.686;2022-11-15T01:49:39;100765.31;;;10.48;100.00
44140;BME280;29803;51.048;4.686;2022-11-15T01:52:15;100763.31;;;10.50;100.00
44140;BME280;29803;51.048;4.686;2022-11-15T01:54:51;100765.81;;;10.52;100.00
44140;BME280;29803;51.048;4.686;2022-11-15T01:57:22;100769.69;;;10.49;100.00
44140;BME280;29803;51.048;4.686;2022-11-15T01:59:53;100769.50;;;10.51;100.00
44140;BME280;29803;51.048;4.686;2022-11-15T02:02:24;100766.66;;;10.52;100.00
44140;BME280;29803;51.048;4.686;2022-11-15T02:04:55;100763.13;;;10.52;100.00
44140;BME280;29803;51.048;4.686;2022-11-15T02:07:37;100770.03;;;10.54;100.00
44140;BME280;29803;51.048;4.686;2022-11-15T02:10:21;100759.94;;;10.56;100.00
44140;BME280;29803;51.048;4.686;2022-11-15T02:13:02;100760.59;;;10.58;100.00
44140;BME280;29803;51.048;4.686;2022-11-15T02:15:38;100752.25;;;10.61;100.00
44140;BME280;29803;51.048;4.686;2022-11-15T02:18:35;100751.22;;;10.62;100.00
44140;BME280;29803;51.048;4.686;2022-11-15T02:21:17;100751.72;;;10.66;100.00
44140;BME280;29803;51.048;4.686;2022-11-15T02:27:20;100751.22;;;10.71;100.00
44140;BME280;29803;51.048;4.686;2022-11-15T02:30:20;100747.34;;;10.73;100.00
44140;BME280;29803;51.048;4.686;2022-11-15T02:33:13;100737.31;;;10.75;100.00
44140;BME280;29803;51.048;4.686;2022-11-15T02:36:01;100737.13;;;10.77;100.00
44140;BME280;29803;51.048;4.686;2022-11-15T02:39:14;100735.78;;;10.81;100.00
44140;BME280;29803;51.048;4.686;2022-11-15T02:41:54;100725.88;;;10.81;100.00
44140;BME280;29803;51.048;4.686;2022-11-15T02:44:32;100724.03;;;10.82;100.00
44140;BME280;29803;51.048;4.686;2022-11-15T02:47:07;100721.53;;;10.80;100.00
44140;BME280;29803;51.048;4.686;2022-11-15T02:49:47;100719.00;;;10.79;100.00
44140;BME280;29803;51.048;4.686;2022-11-15T02:52:23;100710.28;;;10.77;100.00
44140;BME280;29803;51.048;4.686;2022-11-15T02:55:00;100711.31;;;10.76;100.00
44140;BME280;29803;51.048;4.686;2022-11-15T03:00:31;100701.91;;;10.72;100.00
44140;BME280;29803;51.048;4.686;2022-11-15T03:11:20;100704.59;;;10.72;100.00
44140;BME280;29803;51.048;4.686;2022-11-15T03:16:35;100713.31;;;10.74;100.00
44140;BME280;29803;51.048;4.686;2022-11-15T03:19:26;100706.44;;;10.71;100.00
44140;BME280;29803;51.048;4.686;2022-11-15T03:22:02;100709.31;;;10.70;100.00
44140;BME280;29803;51.048;4.686;2022-11-15T03:24:34;100696.72;;;10.70;100.00
44140;BME280;29803;51.048;4.686;2022-11-15T03:27:09;100703.94;;;10.70;100.00
44140;BME280;29803;51.048;4.686;2022-11-15T03:29:46;100704.28;;;10.67;100.00
44140;BME280;29803;51.048;4.686;2022-11-15T03:32:21;100703.94;;;10.70;100.00
44140;BME280;29803;51.048;4.686;2022-11-15T03:34:58;100700.56;;;10.68;100.00
44140;BME280;29803;51.048;4.686;2022-11-15T03:40:05;100702.59;;;10.66;100.00
44140;BME280;29803;51.048;4.686;2022-11-15T03:42:46;100706.13;;;10.66;100.00
44140;BME280;29803;51.048;4.686;2022-11-15T03:47:58;100711.50;;;10.66;100.00
44140;BME280;29803;51.048;4.686;2022-11-15T03:50:30;100712.50;;;10.65;100.00
44140;BME280;29803;51.048;4.686;2022-11-15T03:53:02;100706.31;;;10.65;100.00
44140;BME280;29803;51.048;4.686;2022-11-15T03:55:32;100713.47;;;10.64;100.00
44140;BME280;29803;51.048;4.686;2022-11-15T03:58:03;100713.66;;;10.62;100.00
44140;BME280;29803;51.048;4.686;2022-11-15T04:00:34;100716.34;;;10.62;100.00
44140;BME280;29803;51.048;4.686;2022-11-15T04:03:04;100708.13;;;10.64;100.00
44140;BME280;29803;51.048;4.686;2022-11-15T04:05:35;100713.66;;;10.62;100.00
44140;BME280;29803;51.048;4.686;2022-11-15T04:08:05;100710.16;;;10.62;100.00
44140;BME280;29803;51.048;4.686;2022-11-15T04:10:36;100713.00;;;10.60;100.00
44140;BME280;29803;51.048;4.686;2022-11-15T04:13:06;100709.81;;;10.57;100.00
44140;BME280;29803;51.048;4.686;2022-11-15T04:15:37;100705.28;;;10.57;100.00
44140;BME280;29803;51.048;4.686;2022-11-15T04:18:07;100711.34;;;10.59;100.00
44140;BME280;29803;51.048;4.686;2022-11-15T04:20:37;100715.69;;;10.60;100.00
44140;BME280;29803;51.048;4.686;2022-11-15T04:23:26;100714.69;;;10.61;100.00
44140;BME280;29803;51.048;4.686;2022-11-15T04:26:18;100717.38;;;10.61;100.00
44140;BME280;29803;51.048;4.686;2022-11-15T04:28:49;100713.66;;;10.62;100.00
44140;BME280;29803;51.048;4.686;2022-11-15T04:31:38;100711.16;;;10.61;100.00
44140;BME280;29803;51.048;4.686;2022-11-15T04:34:08;100707.78;;;10.59;100.00
44140;BME280;29803;51.048;4.686;2022-11-15T04:36:38;100714.34;;;10.56;100.00
44140;BME280;29803;51.048;4.686;2022-11-15T04:39:27;100711.00;;;10.54;100.00
44140;BME280;29803;51.048;4.686;2022-11-15T04:41:58;100715.50;;;10.54;100.00
44140;BME280;29803;51.048;4.686;2022-11-15T04:44:28;100718.38;;;10.52;100.00
44140;BME280;29803;51.048;4.686;2022-11-15T04:46:59;100714.03;;;10.51;100.00
44140;BME280;29803;51.048;4.686;2022-11-15T04:49:29;100708.97;;;10.48;100.00
44140;BME280;29803;51.048;4.686;2022-11-15T04:52:00;100704.63;;;10.47;100.00
44140;BME280;29803;51.048;4.686;2022-11-15T04:54:30;100704.44;;;10.49;100.00
44140;BME280;29803;51.048;4.686;2022-11-15T04:57:01;100707.13;;;10.49;100.00
44140;BME280;29803;51.048;4.686;2022-11-15T04:59:31;100702.63;;;10.49;100.00
44140;BME280;29803;51.048;4.686;2022-11-15T05:02:02;100701.28;;;10.45;100.00
44140;BME280;29803;51.048;4.686;2022-11-15T05:04:32;100705.13;;;10.43;100.00
44140;BME280;29803;51.048;4.686;2022-11-15T05:07:03;100700.28;;;10.38;100.00
44140;BME280;29803;51.048;4.686;2022-11-15T05:09:36;100698.78;;;10.35;100.00
44140;BME280;29803;51.048;4.686;2022-11-15T05:12:06;100695.75;;;10.30;100.00
44140;BME280;29803;51.048;4.686;2022-11-15T05:14:37;100709.00;;;10.24;100.00
44140;BME280;29803;51.048;4.686;2022-11-15T05:17:07;100702.41;;;10.18;100.00
44140;BME280;29803;51.048;4.686;2022-11-15T05:19:38;100703.59;;;10.16;100.00
44140;BME280;29803;51.048;4.686;2022-11-15T05:22:08;100700.94;;;10.16;100.00
44140;BME280;29803;51.048;4.686;2022-11-15T05:24:39;100702.41;;;10.18;100.00
44140;BME280;29803;51.048;4.686;2022-11-15T05:27:09;100701.94;;;10.15;100.00
44140;BME280;29803;51.048;4.686;2022-11-15T05:29:40;100703.78;;;10.14;100.00
44140;BME280;29803;51.048;4.686;2022-11-15T05:32:11;100705.78;;;10.12;100.00
44140;BME280;29803;51.048;4.686;2022-11-15T05:34:42;100705.25;;;10.08;100.00
44140;BME280;29803;51.048;4.686;2022-11-15T05:37:14;100713.66;;;10.05;100.00
44140;BME280;29803;51.048;4.686;2022-11-15T05:39:44;100708.63;;;10.02;100.00
44140;BME280;29803;51.048;4.686;2022-11-15T05:42:15;100707.94;;;10.00;100.00
44140;BME280;29803;51.048;4.686;2022-11-15T05:44:47;100704.59;;;9.98;100.00
44140;BME280;29803;51.048;4.686;2022-11-15T05:47:23;100702.06;;;9.97;100.00
44140;BME280;29803;51.048;4.686;2022-11-15T05:49:55;100700.22;;;9.97;100.00
44140;BME280;29803;51.048;4.686;2022-11-15T05:52:29;100709.47;;;9.95;100.00
44140;BME280;29803;51.048;4.686;2022-11-15T05:55:02;100711.44;;;9.93;100.00
44140;BME280;29803;51.048;4.686;2022-11-15T05:57:34;100709.13;;;9.90;100.00
44140;BME280;29803;51.048;4.686;2022-11-15T06:00:05;100707.59;;;9.87;100.00
44140;BME280;29803;51.048;4.686;2022-11-15T06:02:35;100710.63;;;9.84;100.00
44140;BME280;29803;51.048;4.686;2022-11-15T06:05:06;100702.25;;;9.79;100.00
44140;BME280;29803;51.048;4.686;2022-11-15T06:07:36;100704.41;;;9.75;100.00
44140;BME280;29803;51.048;4.686;2022-11-15T06:10:07;100702.03;;;9.72;100.00
44140;BME280;29803;51.048;4.686;2022-11-15T06:12:38;100702.53;;;9.68;100.00
44140;BME280;29803;51.048;4.686;2022-11-15T06:15:09;100702.03;;;9.64;100.00
44140;BME280;29803;51.048;4.686;2022-11-15T06:17:39;100705.03;;;9.61;100.00
44140;BME280;29803;51.048;4.686;2022-11-15T06:20:10;100714.06;;;9.60;100.00
44140;BME280;29803;51.048;4.686;2022-11-15T06:22:40;100715.22;;;9.57;100.00
44140;BME280;29803;51.048;4.686;2022-11-15T06:25:11;100719.75;;;9.57;100.00
44140;BME280;29803;51.048;4.686;2022-11-15T06:27:41;100715.03;;;9.51;100.00
44140;BME280;29803;51.048;4.686;2022-11-15T06:30:12;100719.72;;;9.49;100.00
44140;BME280;29803;51.048;4.686;2022-11-15T06:32:43;100720.72;;;9.48;100.00
44140;BME280;29803;51.048;4.686;2022-11-15T06:35:13;100712.69;;;9.48;100.00
44140;BME280;29803;51.048;4.686;2022-11-15T06:37:44;100719.38;;;9.52;100.00
44140;BME280;29803;51.048;4.686;2022-11-15T06:40:15;100712.88;;;9.54;100.00
44140;BME280;29803;51.048;4.686;2022-11-15T06:42:45;100719.38;;;9.52;100.00
44140;BME280;29803;51.048;4.686;2022-11-15T06:45:16;100710.00;;;9.48;100.00
44140;BME280;29803;51.048;4.686;2022-11-15T06:47:47;100711.31;;;9.44;100.00
44140;BME280;29803;51.048;4.686;2022-11-15T06:50:18;100714.66;;;9.38;100.00
44140;BME280;29803;51.048;4.686;2022-11-15T06:52:48;100714.78;;;9.28;100.00
44140;BME280;29803;51.048;4.686;2022-11-15T06:55:19;100712.22;;;9.18;100.00
44140;BME280;29803;51.048;4.686;2022-11-15T06:57:51;100705.19;;;9.09;100.00
44140;BME280;29803;51.048;4.686;2022-11-15T07:00:21;100708.69;;;9.10;100.00
44140;BME280;29803;51.048;4.686;2022-11-15T07:02:52;100710.31;;;9.02;100.00
44140;BME280;29803;51.048;4.686;2022-11-15T07:05:23;100719.16;;;8.95;100.00
44140;BME280;29803;51.048;4.686;2022-11-15T07:07:54;100719.09;;;8.87;100.00
44140;BME280;29803;51.048;4.686;2022-11-15T07:10:25;100734.47;;;8.85;100.00
44140;BME280;29803;51.048;4.686;2022-11-15T07:12:56;100725.09;;;8.80;100.00
44140;BME280;29803;51.048;4.686;2022-11-15T07:15:27;100731.56;;;8.78;100.00
44140;BME280;29803;51.048;4.686;2022-11-15T07:18:00;100731.72;;;8.76;100.00
44140;BME280;29803;51.048;4.686;2022-11-15T07:20:31;100723.72;;;8.76;100.00
44140;BME280;29803;51.048;4.686;2022-11-15T07:23:03;100729.72;;;8.78;100.00
44140;BME280;29803;51.048;4.686;2022-11-15T07:25:34;100738.09;;;8.75;100.00
44140;BME280;29803;51.048;4.686;2022-11-15T07:28:05;100740.59;;;8.77;100.00
44140;BME280;29803;51.048;4.686;2022-11-15T07:30:35;100733.75;;;8.74;100.00
44140;BME280;29803;51.048;4.686;2022-11-15T07:33:06;100732.91;;;8.74;100.00
44140;BME280;29803;51.048;4.686;2022-11-15T07:35:36;100723.03;;;8.74;100.00
44140;BME280;29803;51.048;4.686;2022-11-15T07:38:06;100734.25;;;8.78;100.00
44140;BME280;29803;51.048;4.686;2022-11-15T07:40:37;100726.22;;;8.78;100.00
44140;BME280;29803;51.048;4.686;2022-11-15T07:43:08;100711.53;;;8.82;100.00
44140;BME280;29803;51.048;4.686;2022-11-15T07:45:43;100709.44;;;8.94;100.00
44140;BME280;29803;51.048;4.686;2022-11-15T07:48:14;100716.66;;;9.01;100.00
44140;BME280;29803;51.048;4.686;2022-11-15T07:50:44;100729.25;;;9.09;100.00
44140;BME280;29803;51.048;4.686;2022-11-15T07:53:15;100730.78;;;9.12;100.00
44140;BME280;29803;51.048;4.686;2022-11-15T07:55:45;100728.28;;;9.18;100.00
44140;BME280;29803;51.048;4.686;2022-11-15T07:58:16;100722.63;;;9.21;100.00
44140;BME280;29803;51.048;4.686;2022-11-15T08:00:48;100722.50;;;9.31;100.00
44140;BME280;29803;51.048;4.686;2022-11-15T08:03:18;100707.63;;;9.37;100.00
44140;BME280;29803;51.048;4.686;2022-11-15T08:05:52;100714.69;;;9.46;100.00
44140;BME280;29803;51.048;4.686;2022-11-15T08:08:22;100717.25;;;9.64;100.00
44140;BME280;29803;51.048;4.686;2022-11-15T08:10:53;100709.75;;;9.75;100.00
44140;BME280;29803;51.048;4.686;2022-11-15T08:13:24;100703.06;;;9.88;100.00
44140;BME280;29803;51.048;4.686;2022-11-15T08:16:01;100701.25;;;10.12;100.00
44140;BME280;29803;51.048;4.686;2022-11-15T08:18:33;100692.91;;;10.32;100.00
44140;BME280;29803;51.048;4.686;2022-11-15T08:21:03;100688.91;;;10.44;100.00
44140;BME280;29803;51.048;4.686;2022-11-15T08:23:34;100684.16;;;10.71;100.00
44140;BME280;29803;51.048;4.686;2022-11-15T08:26:05;100672.66;;;10.93;100.00
44140;BME280;29803;51.048;4.686;2022-11-15T08:28:35;100665.84;;;11.22;100.00
44140;BME280;29803;51.048;4.686;2022-11-15T08:31:06;100666.16;;;11.27;100.00
44140;BME280;29803;51.048;4.686;2022-11-15T08:33:36;100670.22;;;11.54;100.00
44140;BME280;29803;51.048;4.686;2022-11-15T08:36:16;100660.22;;;11.39;100.00
44140;BME280;29803;51.048;4.686;2022-11-15T08:38:47;100644.69;;;11.58;100.00
44140;BME280;29803;51.048;4.686;2022-11-15T08:41:27;100653.53;;;11.89;100.00
44140;BME280;29803;51.048;4.686;2022-11-15T08:43:58;100659.72;;;11.98;100.00
44140;BME280;29803;51.048;4.686;2022-11-15T08:46:29;100647.22;;;11.82;100.00
44140;BME280;29803;51.048;4.686;2022-11-15T08:48:59;100656.09;;;11.91;100.00
44140;BME280;29803;51.048;4.686;2022-11-15T08:51:30;100648.41;;;12.03;100.00
44140;BME280;29803;51.048;4.686;2022-11-15T08:54:00;100649.59;;;11.77;100.00
44140;BME280;29803;51.048;4.686;2022-11-15T08:56:31;100646.25;;;11.98;100.00
44140;BME280;29803;51.048;4.686;2022-11-15T08:59:01;100646.59;;;11.72;100.00
44140;BME280;29803;51.048;4.686;2022-11-15T09:01:32;100640.66;;;11.54;100.00
44140;BME280;29803;51.048;4.686;2022-11-15T09:04:02;100632.16;;;11.50;100.00
44140;BME280;29803;51.048;4.686;2022-11-15T09:06:34;100649.59;;;11.77;100.00
44140;BME280;29803;51.048;4.686;2022-11-15T09:09:04;100633.50;;;11.69;100.00
44140;BME280;29803;51.048;4.686;2022-11-15T09:11:35;100635.97;;;11.56;100.00
44140;BME280;29803;51.048;4.686;2022-11-15T09:14:05;100644.97;;;11.40;100.00
44140;BME280;29803;51.048;4.686;2022-11-15T09:16:36;100652.09;;;11.25;100.00
44140;BME280;29803;51.048;4.686;2022-11-15T09:19:06;100641.28;;;11.02;100.00
44140;BME280;29803;51.048;4.686;2022-11-15T09:21:37;100638.91;;;11.38;100.00
44140;BME280;29803;51.048;4.686;2022-11-15T09:24:07;100635.66;;;11.51;100.00
44140;BME280;29803;51.048;4.686;2022-11-15T09:26:39;100644.59;;;11.12;100.00
44140;BME280;29803;51.048;4.686;2022-11-15T09:29:10;100649.75;;;11.22;100.00
44140;BME280;29803;51.048;4.686;2022-11-15T09:31:40;100642.34;;;11.78;100.00
44140;BME280;29803;51.048;4.686;2022-11-15T09:34:11;100646.41;;;12.19;100.00
44140;BME280;29803;51.048;4.686;2022-11-15T09:36:42;100638.34;;;12.19;100.00
44140;BME280;29803;51.048;4.686;2022-11-15T09:39:12;100636.69;;;12.18;100.00
44140;BME280;29803;51.048;4.686;2022-11-15T09:50:49;100622.63;;;12.31;100.00
44140;BME280;29803;51.048;4.686;2022-11-15T09:54:25;100624.53;;;12.23;100.00
44140;BME280;29803;51.048;4.686;2022-11-15T09:56:31;100619.16;;;12.23;100.00
44140;BME280;29803;51.048;4.686;2022-11-15T10:04:15;100617.06;;;12.48;100.00
44140;BME280;29803;51.048;4.686;2022-11-15T10:06:54;100605.00;;;12.58;100.00
44140;BME280;29803;51.048;4.686;2022-11-15T10:09:54;100599.44;;;12.60;100.00
44140;BME280;29803;51.048;4.686;2022-11-15T10:12:27;100609.38;;;12.74;100.00
44140;BME280;29803;51.048;4.686;2022-11-15T10:15:06;100604.25;;;12.64;100.00
44140;BME280;29803;51.048;4.686;2022-11-15T10:20:50;100587.44;;;12.18;100.00
44140;BME280;29803;51.048;4.686;2022-11-15T10:23:23;100583.72;;;12.19;100.00
44140;BME280;29803;51.048;4.686;2022-11-15T10:25:56;100582.13;;;11.95;100.00
44140;BME280;29803;51.048;4.686;2022-11-15T10:28:29;100571.84;;;12.13;100.00
44140;BME280;29803;51.048;4.686;2022-11-15T10:31:01;100567.50;;;12.12;100.00
44140;BME280;29803;51.048;4.686;2022-11-15T10:33:38;100559.44;;;12.12;100.00
44140;BME280;29803;51.048;4.686;2022-11-15T10:39:00;100556.97;;;12.40;100.00
44140;BME280;29803;51.048;4.686;2022-11-15T10:41:34;100547.75;;;12.35;100.00
44140;BME280;29803;51.048;4.686;2022-11-15T10:46:45;100530.50;;;12.29;100.00
44140;BME280;29803;51.048;4.686;2022-11-15T10:49:22;100532.06;;;12.24;100.00
44140;BME280;29803;51.048;4.686;2022-11-15T10:52:00;100523.06;;;12.02;100.00
44140;BME280;29803;51.048;4.686;2022-11-15T10:54:36;100519.63;;;11.93;100.00
44140;BME280;29803;51.048;4.686;2022-11-15T10:57:12;100519.38;;;12.17;100.00
44140;BME280;29803;51.048;4.686;2022-11-15T10:59:48;100515.28;;;12.07;100.00
44140;BME280;29803;51.048;4.686;2022-11-15T11:02:40;100494.50;;;11.86;100.00
44140;BME280;29803;51.048;4.686;2022-11-15T11:05:26;100500.66;;;11.72;100.00
44140;BME280;29803;51.048;4.686;2022-11-15T11:08:09;100482.88;;;11.71;100.00
44140;BME280;29803;51.048;4.686;2022-11-15T11:10:53;100485.47;;;11.79;100.00
44140;BME280;29803;51.048;4.686;2022-11-15T11:13:26;100486.19;;;11.73;100.00
44140;BME280;29803;51.048;4.686;2022-11-15T11:16:26;100483.56;;;11.64;100.00
44140;BME280;29803;51.048;4.686;2022-11-15T11:19:15;100473.59;;;11.73;100.00
44140;BME280;29803;51.048;4.686;2022-11-15T11:33:40;100422.22;;;12.06;100.00
44140;BME280;29803;51.048;4.686;2022-11-15T11:41:53;100434.63;;;11.92;100.00
44140;BME280;29803;51.048;4.686;2022-11-15T11:47:40;100416.84;;;12.06;100.00
44140;BME280;29803;51.048;4.686;2022-11-15T11:50:18;100406.63;;;12.01;100.00
44140;BME280;29803;51.048;4.686;2022-11-15T11:55:27;100408.94;;;12.04;100.00
44140;BME280;29803;51.048;4.686;2022-11-15T11:58:16;100399.00;;;12.05;100.00
44140;BME280;29803;51.048;4.686;2022-11-15T12:01:28;100394.56;;;12.12;100.00
44140;BME280;29803;51.048;4.686;2022-11-15T12:04:13;100392.44;;;12.07;100.00
44140;BME280;29803;51.048;4.686;2022-11-15T12:06:46;100377.16;;;12.08;100.00
44140;BME280;29803;51.048;4.686;2022-11-15T12:09:36;100378.53;;;12.04;100.00
44140;BME280;29803;51.048;4.686;2022-11-15T12:12:25;100363.13;;;12.12;100.00
44140;BME280;29803;51.048;4.686;2022-11-15T12:17:39;100362.00;;;12.22;100.00
44140;BME280;29803;51.048;4.686;2022-11-15T12:20:16;100340.03;;;12.18;100.00
44140;BME280;29803;51.048;4.686;2022-11-15T12:22:58;100350.31;;;12.14;100.00
44140;BME280;29803;51.048;4.686;2022-11-15T12:29:00;100340.50;;;12.22;100.00
44140;BME280;29803;51.048;4.686;2022-11-15T12:31:45;100337.25;;;12.26;100.00
44140;BME280;29803;51.048;4.686;2022-11-15T12:36:52;100329.25;;;12.33;100.00
44140;BME280;29803;51.048;4.686;2022-11-15T12:45:45;100307.53;;;12.34;100.00
44140;BME280;29803;51.048;4.686;2022-11-15T12:53:27;100295.94;;;12.34;100.00
44140;BME280;29803;51.048;4.686;2022-11-15T12:58:56;100275.66;;;12.31;100.00
44140;BME280;29803;51.048;4.686;2022-11-15T13:07:05;100270.06;;;12.33;100.00
44140;BME280;29803;51.048;4.686;2022-11-15T13:14:58;100243.06;;;12.41;100.00
44140;BME280;29803;51.048;4.686;2022-11-15T13:17:36;100240.53;;;12.39;100.00
44140;BME280;29803;51.048;4.686;2022-11-15T13:25:40;100230.19;;;12.64;100.00
44140;BME280;29803;51.048;4.686;2022-11-15T13:28:30;100223.59;;;12.67;100.00
44140;BME280;29803;51.048;4.686;2022-11-15T13:31:25;100219.31;;;12.73;100.00
44140;BME280;29803;51.048;4.686;2022-11-15T13:33:57;100220.13;;;12.73;100.00
44140;BME280;29803;51.048;4.686;2022-11-15T13:36:32;100211.03;;;12.74;100.00
44140;BME280;29803;51.048;4.686;2022-11-15T13:39:14;100198.59;;;12.73;100.00
44140;BME280;29803;51.048;4.686;2022-11-15T13:41:53;100195.31;;;12.78;100.00
44140;BME280;29803;51.048;4.686;2022-11-15T13:44:31;100182.25;;;12.75;100.00
44140;BME280;29803;51.048;4.686;2022-11-15T13:47:09;100185.53;;;12.70;100.00
44140;BME280;29803;51.048;4.686;2022-11-15T13:49:43;100176.38;;;12.64;100.00
44140;BME280;29803;51.048;4.686;2022-11-15T13:52:15;100167.88;;;12.61;100.00
44140;BME280;29803;51.048;4.686;2022-11-15T13:57:25;100161.84;;;12.59;100.00
44140;BME280;29803;51.048;4.686;2022-11-15T14:00:01;100162.44;;;12.54;100.00
44140;BME280;29803;51.048;4.686;2022-11-15T14:02:34;100158.09;;;12.53;100.00
44140;BME280;29803;51.048;4.686;2022-11-15T14:05:17;100153.13;;;12.50;100.00
44140;BME280;29803;51.048;4.686;2022-11-15T14:07:54;100151.66;;;12.54;100.00
44140;BME280;29803;51.048;4.686;2022-11-15T14:10:34;100143.59;;;12.54;100.00
44140;BME280;29803;51.048;4.686;2022-11-15T14:13:27;100133.88;;;12.53;100.00
44140;BME280;29803;51.048;4.686;2022-11-15T14:16:17;100123.56;;;12.57;100.00
44140;BME280;29803;51.048;4.686;2022-11-15T14:18:50;100126.25;;;12.57;100.00
44140;BME280;29803;51.048;4.686;2022-11-15T14:21:21;100121.91;;;12.56;100.00
44140;BME280;29803;51.048;4.686;2022-11-15T14:23:51;100118.78;;;12.59;100.00
44140;BME280;29803;51.048;4.686;2022-11-15T14:26:31;100119.00;;;12.57;100.00
44140;BME280;29803;51.048;4.686;2022-11-15T14:29:24;100114.84;;;12.55;100.00
44140;BME280;29803;51.048;4.686;2022-11-15T14:32:22;100108.25;;;12.57;100.00
44140;BME280;29803;51.048;4.686;2022-11-15T14:34:58;100106.38;;;12.58;100.00
44140;BME280;29803;51.048;4.686;2022-11-15T14:37:30;100100.16;;;12.57;100.00
44140;BME280;29803;51.048;4.686;2022-11-15T14:40:05;100105.34;;;12.59;100.00
44140;BME280;29803;51.048;4.686;2022-11-15T14:42:36;100106.59;;;12.56;100.00
44140;BME280;29803;51.048;4.686;2022-11-15T14:45:14;100109.03;;;12.51;100.00
44140;BME280;29803;51.048;4.686;2022-11-15T14:47:45;100105.53;;;12.51;100.00
44140;BME280;29803;51.048;4.686;2022-11-15T14:50:18;100102.53;;;12.39;100.00
44140;BME280;29803;51.048;4.686;2022-11-15T14:52:49;100099.16;;;12.30;100.00
44140;BME280;29803;51.048;4.686;2022-11-15T14:55:24;100095.09;;;12.13;100.00
44140;BME280;29803;51.048;4.686;2022-11-15T14:57:55;100091.69;;;12.04;100.00
44140;BME280;29803;51.048;4.686;2022-11-15T15:00:26;100092.47;;;11.98;100.00
44140;BME280;29803;51.048;4.686;2022-11-15T15:02:56;100090.38;;;11.93;100.00
44140;BME280;29803;51.048;4.686;2022-11-15T15:08:03;100083.66;;;11.83;100.00
44140;BME280;29803;51.048;4.686;2022-11-15T15:10:39;100075.53;;;11.76;100.00
44140;BME280;29803;51.048;4.686;2022-11-15T15:13:16;100070.50;;;11.73;100.00
44140;BME280;29803;51.048;4.686;2022-11-15T15:15:49;100075.19;;;11.64;100.00